sensor_id;sensor_type;location;lat;lon;timestamp;P1;durP1;ratioP1;P2;durP2;ratioP2
11037;SDS011;5572;49.540;11.932;2023-08-06T00:01:14;13.23;;;12.13;;
11037;SDS011;5572;49.540;11.932;2023-08-06T00:03:41;13.30;;;12.17;;
11037;SDS011;5572;49.540;11.932;2023-08-06T00:06:07;12.80;;;11.67;;
11037;SDS011;5572;49.540;11.932;2023-08-06T00:08:34;14.90;;;13.60;;
11037;SDS011;5572;49.540;11.932;2023-08-06T00:11:02;15.13;;;13.83;;
11037;SDS011;5572;49.540;11.932;2023-08-06T00:13:29;15.50;;;14.00;;
11037;SDS011;5572;49.540;11.932;2023-08-06T00:15:55;15.00;;;13.67;;
11037;SDS011;5572;49.540;11.932;2023-08-06T00:18:22;13.60;;;12.53;;
11037;SDS011;5572;49.540;11.932;2023-08-06T00:20:48;13.50;;;12.37;;
11037;SDS011;5572;49.540;11.932;2023-08-06T00:23:15;12.63;;;11.63;;
11037;SDS011;5572;49.540;11.932;2023-08-06T00:25:42;11.77;;;10.80;;
11037;SDS011;5572;49.540;11.932;2023-08-06T00:28:11;12.57;;;11.53;;
11037;SDS011;5572;49.540;11.932;2023-08-06T00:30:37;14.23;;;13.07;;
11037;SDS011;5572;49.540;11.932;2023-08-06T00:33:04;12.37;;;11.33;;
11037;SDS011;5572;49.540;11.932;2023-08-06T00:35:30;13.53;;;12.40;;
11037;SDS011;5572;49.540;11.932;2023-08-06T00:37:57;12.47;;;11.43;;
11037;SDS011;5572;49.540;11.932;2023-08-06T00:40:24;14.47;;;13.33;;
11037;SDS011;5572;49.540;11.932;2023-08-06T00:42:50;13.30;;;12.23;;
11037;SDS011;5572;49.540;11.932;2023-08-06T00:45:18;12.30;;;11.30;;
11037;SDS011;5572;49.540;11.932;2023-08-06T00:47:45;11.40;;;10.47;;
11037;SDS011;5572;49.540;11.932;2023-08-06T00:50:12;12.27;;;11.30;;
11037;SDS011;5572;49.540;11.932;2023-08-06T00:52:39;13.73;;;12.67;;
11037;SDS011;5572;49.540;11.932;2023-08-06T00:55:07;12.67;;;11.53;;
11037;SDS011;5572;49.540;11.932;2023-08-06T00:57:34;13.67;;;12.53;;
11037;SDS011;5572;49.540;11.932;2023-08-06T01:00:01;12.27;;;11.30;;
11037;SDS011;5572;49.540;11.932;2023-08-06T01:02:30;12.67;;;11.60;;
11037;SDS011;5572;49.540;11.932;2023-08-06T01:04:57;14.57;;;13.43;;
11037;SDS011;5572;49.540;11.932;2023-08-06T01:07:28;13.03;;;12.00;;
11037;SDS011;5572;49.540;11.932;2023-08-06T01:10:10;11.60;;;10.67;;
11037;SDS011;5572;49.540;11.932;2023-08-06T01:12:51;12.97;;;11.97;;
11037;SDS011;5572;49.540;11.932;2023-08-06T01:15:24;12.73;;;11.70;;
11037;SDS011;5572;49.540;11.932;2023-08-06T01:17:56;11.53;;;10.50;;
11037;SDS011;5572;49.540;11.932;2023-08-06T01:20:28;12.13;;;11.17;;
11037;SDS011;5572;49.540;11.932;2023-08-06T01:22:55;11.63;;;10.73;;
11037;SDS011;5572;49.540;11.932;2023-08-06T01:25:22;11.43;;;10.50;;
11037;SDS011;5572;49.540;11.932;2023-08-06T01:27:56;10.60;;;9.67;;
11037;SDS011;5572;49.540;11.932;2023-08-06T01:30:31;12.67;;;11.57;;
11037;SDS011;5572;49.540;11.932;2023-08-06T01:33:01;13.13;;;12.00;;
11037;SDS011;5572;49.540;11.932;2023-08-06T01:35:32;12.10;;;11.07;;
11037;SDS011;5572;49.540;11.932;2023-08-06T01:37:59;13.37;;;12.20;;
11037;SDS011;5572;49.540;11.932;2023-08-06T01:40:26;13.33;;;12.30;;
11037;SDS011;5572;49.540;11.932;2023-08-06T01:42:54;14.57;;;13.37;;
11037;SDS011;5572;49.540;11.932;2023-08-06T01:45:21;11.63;;;10.60;;
11037;SDS011;5572;49.540;11.932;2023-08-06T01:47:48;12.30;;;11.27;;
11037;SDS011;5572;49.540;11.932;2023-08-06T01:50:14;12.70;;;11.67;;
11037;SDS011;5572;49.540;11.932;2023-08-06T01:52:42;12.60;;;11.60;;
11037;SDS011;5572;49.540;11.932;2023-08-06T01:55:09;12.70;;;11.67;;
11037;SDS011;5572;49.540;11.932;2023-08-06T01:57:35;13.87;;;12.67;;
11037;SDS011;5572;49.540;11.932;2023-08-06T02:00:02;12.90;;;11.87;;
11037;SDS011;5572;49.540;11.932;2023-08-06T02:02:29;12.37;;;11.30;;
11037;SDS011;5572;49.540;11.932;2023-08-06T02:04:56;15.03;;;13.77;;
11037;SDS011;5572;49.540;11.932;2023-08-06T02:07:23;12.83;;;11.73;;
11037;SDS011;5572;49.540;11.932;2023-08-06T02:09:51;12.93;;;11.83;;
11037;SDS011;5572;49.540;11.932;2023-08-06T02:12:17;11.47;;;10.47;;
11037;SDS011;5572;49.540;11.932;2023-08-06T02:14:45;12.20;;;11.17;;
11037;SDS011;5572;49.540;11.932;2023-08-06T02:17:12;12.67;;;11.60;;
11037;SDS011;5572;49.540;11.932;2023-08-06T02:19:38;12.00;;;11.00;;
11037;SDS011;5572;49.540;11.932;2023-08-06T02:22:05;12.47;;;11.47;;
11037;SDS011;5572;49.540;11.932;2023-08-06T02:24:32;13.23;;;12.10;;
11037;SDS011;5572;49.540;11.932;2023-08-06T02:27:00;14.50;;;13.20;;
11037;SDS011;5572;49.540;11.932;2023-08-06T02:29:26;12.23;;;11.17;;
11037;SDS011;5572;49.540;11.932;2023-08-06T02:31:53;11.97;;;10.93;;
11037;SDS011;5572;49.540;11.932;2023-08-06T02:34:20;11.83;;;10.90;;
11037;SDS011;5572;49.540;11.932;2023-08-06T02:36:46;13.03;;;12.00;;
11037;SDS011;5572;49.540;11.932;2023-08-06T02:39:13;13.40;;;12.33;;
11037;SDS011;5572;49.540;11.932;2023-08-06T02:41:39;13.20;;;12.13;;
11037;SDS011;5572;49.540;11.932;2023-08-06T02:44:07;12.03;;;11.07;;
11037;SDS011;5572;49.540;11.932;2023-08-06T02:46:34;12.97;;;11.90;;
11037;SDS011;5572;49.540;11.932;2023-08-06T02:49:00;13.13;;;12.03;;
11037;SDS011;5572;49.540;11.932;2023-08-06T02:51:27;13.70;;;12.60;;
11037;SDS011;5572;49.540;11.932;2023-08-06T02:53:54;11.00;;;10.10;;
11037;SDS011;5572;49.540;11.932;2023-08-06T02:56:20;13.63;;;12.53;;
11037;SDS011;5572;49.540;11.932;2023-08-06T02:58:47;13.53;;;12.30;;
11037;SDS011;5572;49.540;11.932;2023-08-06T03:01:15;12.13;;;11.17;;
11037;SDS011;5572;49.540;11.932;2023-08-06T03:03:41;11.67;;;10.77;;
11037;SDS011;5572;49.540;11.932;2023-08-06T03:06:08;11.13;;;10.27;;
11037;SDS011;5572;49.540;11.932;2023-08-06T03:08:35;12.83;;;11.87;;
11037;SDS011;5572;49.540;11.932;2023-08-06T03:11:02;12.77;;;11.63;;
11037;SDS011;5572;49.540;11.932;2023-08-06T03:13:33;11.53;;;10.63;;
11037;SDS011;5572;49.540;11.932;2023-08-06T03:15:59;12.30;;;11.37;;
11037;SDS011;5572;49.540;11.932;2023-08-06T03:18:28;12.07;;;11.00;;
11037;SDS011;5572;49.540;11.932;2023-08-06T03:20:54;13.77;;;12.53;;
11037;SDS011;5572;49.540;11.932;2023-08-06T03:23:22;11.77;;;10.87;;
11037;SDS011;5572;49.540;11.932;2023-08-06T03:25:48;12.80;;;11.83;;
11037;SDS011;5572;49.540;11.932;2023-08-06T03:28:15;12.00;;;11.10;;
11037;SDS011;5572;49.540;11.932;2023-08-06T03:30:41;11.53;;;10.60;;
11037;SDS011;5572;49.540;11.932;2023-08-06T03:33:08;12.37;;;11.33;;
11037;SDS011;5572;49.540;11.932;2023-08-06T03:35:36;12.43;;;11.47;;
11037;SDS011;5572;49.540;11.932;2023-08-06T03:38:03;10.50;;;9.67;;
11037;SDS011;5572;49.540;11.932;2023-08-06T03:40:29;10.67;;;9.83;;
11037;SDS011;5572;49.540;11.932;2023-08-06T03:42:56;11.47;;;10.53;;
11037;SDS011;5572;49.540;11.932;2023-08-06T03:45:23;11.93;;;11.03;;
11037;SDS011;5572;49.540;11.932;2023-08-06T03:47:49;13.23;;;12.23;;
11037;SDS011;5572;49.540;11.932;2023-08-06T03:50:16;12.13;;;11.20;;
11037;SDS011;5572;49.540;11.932;2023-08-06T03:52:44;12.43;;;11.33;;
11037;SDS011;5572;49.540;11.932;2023-08-06T03:55:10;11.63;;;10.77;;
11037;SDS011;5572;49.540;11.932;2023-08-06T03:57:37;13.53;;;12.40;;
11037;SDS011;5572;49.540;11.932;2023-08-06T04:00:03;13.70;;;12.70;;
11037;SDS011;5572;49.540;11.932;2023-08-06T04:02:30;12.10;;;11.20;;
11037;SDS011;5572;49.540;11.932;2023-08-06T04:04:57;17.00;;;15.60;;
11037;SDS011;5572;49.540;11.932;2023-08-06T04:07:24;12.17;;;11.20;;
11037;SDS011;5572;49.540;11.932;2023-08-06T04:09:53;13.37;;;12.27;;
11037;SDS011;5572;49.540;11.932;2023-08-06T04:12:20;11.93;;;10.93;;
11037;SDS011;5572;49.540;11.932;2023-08-06T04:14:47;12.33;;;11.33;;
11037;SDS011;5572;49.540;11.932;2023-08-06T04:17:13;12.13;;;11.17;;
11037;SDS011;5572;49.540;11.932;2023-08-06T04:19:40;12.97;;;11.83;;
11037;SDS011;5572;49.540;11.932;2023-08-06T04:22:06;13.83;;;12.80;;
11037;SDS011;5572;49.540;11.932;2023-08-06T04:24:33;12.83;;;11.80;;
11037;SDS011;5572;49.540;11.932;2023-08-06T04:27:01;12.37;;;11.47;;
11037;SDS011;5572;49.540;11.932;2023-08-06T04:29:28;11.80;;;10.93;;
11037;SDS011;5572;49.540;11.932;2023-08-06T04:31:54;14.03;;;12.87;;
11037;SDS011;5572;49.540;11.932;2023-08-06T04:34:21;12.13;;;11.17;;
11037;SDS011;5572;49.540;11.932;2023-08-06T04:36:48;13.03;;;12.03;;
11037;SDS011;5572;49.540;11.932;2023-08-06T04:39:14;11.97;;;11.10;;
11037;SDS011;5572;49.540;11.932;2023-08-06T04:41:41;13.53;;;12.47;;
11037;SDS011;5572;49.540;11.932;2023-08-06T04:44:09;12.43;;;11.40;;
11037;SDS011;5572;49.540;11.932;2023-08-06T04:46:36;14.10;;;12.97;;
11037;SDS011;5572;49.540;11.932;2023-08-06T04:49:02;12.37;;;11.33;;
11037;SDS011;5572;49.540;11.932;2023-08-06T04:51:29;14.43;;;13.27;;
11037;SDS011;5572;49.540;11.932;2023-08-06T04:53:56;12.93;;;11.83;;
11037;SDS011;5572;49.540;11.932;2023-08-06T04:56:23;13.60;;;12.57;;
11037;SDS011;5572;49.540;11.932;2023-08-06T04:58:50;13.40;;;12.37;;
11037;SDS011;5572;49.540;11.932;2023-08-06T05:01:18;13.60;;;12.47;;
11037;SDS011;5572;49.540;11.932;2023-08-06T05:03:45;13.73;;;12.60;;
11037;SDS011;5572;49.540;11.932;2023-08-06T05:06:13;11.90;;;10.90;;
11037;SDS011;5572;49.540;11.932;2023-08-06T05:08:39;13.50;;;12.47;;
11037;SDS011;5572;49.540;11.932;2023-08-06T05:11:06;12.80;;;11.80;;
11037;SDS011;5572;49.540;11.932;2023-08-06T05:13:32;13.50;;;12.47;;
11037;SDS011;5572;49.540;11.932;2023-08-06T05:15:59;12.97;;;11.93;;
11037;SDS011;5572;49.540;11.932;2023-08-06T05:18:27;12.53;;;11.63;;
11037;SDS011;5572;49.540;11.932;2023-08-06T05:20:55;14.07;;;12.93;;
11037;SDS011;5572;49.540;11.932;2023-08-06T05:23:22;13.07;;;11.87;;
11037;SDS011;5572;49.540;11.932;2023-08-06T05:25:48;13.77;;;12.67;;
11037;SDS011;5572;49.540;11.932;2023-08-06T05:28:15;12.47;;;11.53;;
11037;SDS011;5572;49.540;11.932;2023-08-06T05:30:41;14.03;;;12.87;;
11037;SDS011;5572;49.540;11.932;2023-08-06T05:33:08;12.33;;;11.33;;
11037;SDS011;5572;49.540;11.932;2023-08-06T05:35:36;13.30;;;12.17;;
11037;SDS011;5572;49.540;11.932;2023-08-06T05:38:02;12.30;;;11.27;;
11037;SDS011;5572;49.540;11.932;2023-08-06T05:40:29;12.40;;;11.40;;
11037;SDS011;5572;49.540;11.932;2023-08-06T05:42:56;11.90;;;10.93;;
11037;SDS011;5572;49.540;11.932;2023-08-06T05:45:22;12.40;;;11.40;;
11037;SDS011;5572;49.540;11.932;2023-08-06T05:47:49;12.87;;;11.73;;
11037;SDS011;5572;49.540;11.932;2023-08-06T05:50:16;12.90;;;11.87;;
11037;SDS011;5572;49.540;11.932;2023-08-06T05:52:45;13.27;;;12.23;;
11037;SDS011;5572;49.540;11.932;2023-08-06T05:55:11;11.97;;;11.00;;
11037;SDS011;5572;49.540;11.932;2023-08-06T05:57:38;13.00;;;11.80;;
11037;SDS011;5572;49.540;11.932;2023-08-06T06:00:05;12.70;;;11.70;;
11037;SDS011;5572;49.540;11.932;2023-08-06T06:02:32;13.37;;;12.30;;
11037;SDS011;5572;49.540;11.932;2023-08-06T06:04:59;15.67;;;14.47;;
11037;SDS011;5572;49.540;11.932;2023-08-06T06:07:26;12.73;;;11.73;;
11037;SDS011;5572;49.540;11.932;2023-08-06T06:09:53;13.90;;;12.70;;
11037;SDS011;5572;49.540;11.932;2023-08-06T06:12:20;13.13;;;12.10;;
11037;SDS011;5572;49.540;11.932;2023-08-06T06:14:47;13.27;;;12.20;;
11037;SDS011;5572;49.540;11.932;2023-08-06T06:17:14;12.70;;;11.67;;
11037;SDS011;5572;49.540;11.932;2023-08-06T06:19:40;13.30;;;12.23;;
11037;SDS011;5572;49.540;11.932;2023-08-06T06:22:07;13.10;;;12.10;;
11037;SDS011;5572;49.540;11.932;2023-08-06T06:24:34;13.43;;;12.33;;
11037;SDS011;5572;49.540;11.932;2023-08-06T06:27:02;13.53;;;12.43;;
11037;SDS011;5572;49.540;11.932;2023-08-06T06:29:29;14.40;;;13.30;;
11037;SDS011;5572;49.540;11.932;2023-08-06T06:31:55;15.47;;;14.30;;
11037;SDS011;5572;49.540;11.932;2023-08-06T06:34:22;14.07;;;12.93;;
11037;SDS011;5572;49.540;11.932;2023-08-06T06:36:48;14.20;;;13.07;;
11037;SDS011;5572;49.540;11.932;2023-08-06T06:39:15;14.23;;;13.13;;
11037;SDS011;5572;49.540;11.932;2023-08-06T06:41:42;14.67;;;13.53;;
11037;SDS011;5572;49.540;11.932;2023-08-06T06:44:10;15.23;;;14.07;;
11037;SDS011;5572;49.540;11.932;2023-08-06T06:46:37;15.63;;;14.40;;
11037;SDS011;5572;49.540;11.932;2023-08-06T06:49:04;15.73;;;14.47;;
11037;SDS011;5572;49.540;11.932;2023-08-06T06:51:30;14.73;;;13.57;;
11037;SDS011;5572;49.540;11.932;2023-08-06T06:53:57;15.77;;;14.57;;
11037;SDS011;5572;49.540;11.932;2023-08-06T06:56:24;15.63;;;14.47;;
11037;SDS011;5572;49.540;11.932;2023-08-06T06:58:50;15.17;;;14.00;;
11037;SDS011;5572;49.540;11.932;2023-08-06T07:01:18;14.50;;;13.43;;
11037;SDS011;5572;49.540;11.932;2023-08-06T07:03:45;16.23;;;15.00;;
11037;SDS011;5572;49.540;11.932;2023-08-06T07:06:12;14.70;;;13.50;;
11037;SDS011;5572;49.540;11.932;2023-08-06T07:08:40;16.17;;;14.97;;
11037;SDS011;5572;49.540;11.932;2023-08-06T07:11:07;14.43;;;13.37;;
11037;SDS011;5572;49.540;11.932;2023-08-06T07:13:34;15.23;;;14.13;;
11037;SDS011;5572;49.540;11.932;2023-08-06T07:16:01;17.30;;;16.03;;
11037;SDS011;5572;49.540;11.932;2023-08-06T07:18:29;14.30;;;13.27;;
11037;SDS011;5572;49.540;11.932;2023-08-06T07:20:55;16.03;;;14.70;;
11037;SDS011;5572;49.540;11.932;2023-08-06T07:23:22;16.37;;;15.17;;
11037;SDS011;5572;49.540;11.932;2023-08-06T07:25:50;15.77;;;14.63;;
11037;SDS011;5572;49.540;11.932;2023-08-06T07:28:17;17.63;;;16.37;;
11037;SDS011;5572;49.540;11.932;2023-08-06T07:30:44;16.53;;;15.23;;
11037;SDS011;5572;49.540;11.932;2023-08-06T07:33:11;16.87;;;15.60;;
11037;SDS011;5572;49.540;11.932;2023-08-06T07:35:39;17.37;;;16.10;;
11037;SDS011;5572;49.540;11.932;2023-08-06T07:38:06;17.30;;;15.97;;
11037;SDS011;5572;49.540;11.932;2023-08-06T07:40:34;18.93;;;17.53;;
11037;SDS011;5572;49.540;11.932;2023-08-06T07:43:01;19.77;;;18.23;;
11037;SDS011;5572;49.540;11.932;2023-08-06T07:45:28;17.17;;;15.83;;
11037;SDS011;5572;49.540;11.932;2023-08-06T07:47:59;17.43;;;16.13;;
11037;SDS011;5572;49.540;11.932;2023-08-06T07:50:25;17.67;;;16.33;;
11037;SDS011;5572;49.540;11.932;2023-08-06T07:52:53;16.93;;;15.70;;
11037;SDS011;5572;49.540;11.932;2023-08-06T07:55:20;17.83;;;16.53;;
11037;SDS011;5572;49.540;11.932;2023-08-06T07:57:46;15.40;;;14.23;;
11037;SDS011;5572;49.540;11.932;2023-08-06T08:00:13;18.83;;;17.27;;
11037;SDS011;5572;49.540;11.932;2023-08-06T08:02:39;16.40;;;15.23;;
11037;SDS011;5572;49.540;11.932;2023-08-06T08:05:06;19.10;;;17.67;;
11037;SDS011;5572;49.540;11.932;2023-08-06T08:07:33;16.13;;;15.00;;
11037;SDS011;5572;49.540;11.932;2023-08-06T08:10:01;16.73;;;15.53;;
11037;SDS011;5572;49.540;11.932;2023-08-06T08:12:30;17.40;;;16.10;;
11037;SDS011;5572;49.540;11.932;2023-08-06T08:14:56;19.03;;;17.40;;
11037;SDS011;5572;49.540;11.932;2023-08-06T08:17:23;18.30;;;16.97;;
11037;SDS011;5572;49.540;11.932;2023-08-06T08:19:50;16.27;;;15.07;;
11037;SDS011;5572;49.540;11.932;2023-08-06T08:22:16;17.83;;;16.40;;
11037;SDS011;5572;49.540;11.932;2023-08-06T08:24:43;16.50;;;15.33;;
11037;SDS011;5572;49.540;11.932;2023-08-06T08:27:11;17.00;;;15.77;;
11037;SDS011;5572;49.540;11.932;2023-08-06T08:29:37;15.07;;;14.03;;
11037;SDS011;5572;49.540;11.932;2023-08-06T08:32:04;17.07;;;15.90;;
11037;SDS011;5572;49.540;11.932;2023-08-06T08:34:31;15.70;;;14.60;;
11037;SDS011;5572;49.540;11.932;2023-08-06T08:36:58;16.00;;;14.90;;
11037;SDS011;5572;49.540;11.932;2023-08-06T08:39:24;15.97;;;14.83;;
11037;SDS011;5572;49.540;11.932;2023-08-06T08:41:51;16.23;;;15.07;;
11037;SDS011;5572;49.540;11.932;2023-08-06T08:44:19;17.73;;;16.43;;
11037;SDS011;5572;49.540;11.932;2023-08-06T08:46:46;15.77;;;14.63;;
11037;SDS011;5572;49.540;11.932;2023-08-06T08:49:14;18.87;;;17.43;;
11037;SDS011;5572;49.540;11.932;2023-08-06T08:51:41;17.00;;;15.80;;
11037;SDS011;5572;49.540;11.932;2023-08-06T08:54:09;21.53;;;19.83;;
11037;SDS011;5572;49.540;11.932;2023-08-06T08:56:37;19.67;;;18.07;;
11037;SDS011;5572;49.540;11.932;2023-08-06T08:59:04;19.83;;;18.20;;
11037;SDS011;5572;49.540;11.932;2023-08-06T09:01:32;17.73;;;16.43;;
11037;SDS011;5572;49.540;11.932;2023-08-06T09:03:59;16.80;;;15.57;;
11037;SDS011;5572;49.540;11.932;2023-08-06T09:06:27;18.67;;;17.33;;
11037;SDS011;5572;49.540;11.932;2023-08-06T09:08:56;17.60;;;16.30;;
11037;SDS011;5572;49.540;11.932;2023-08-06T09:11:30;16.67;;;15.40;;
11037;SDS011;5572;49.540;11.932;2023-08-06T09:14:04;15.27;;;14.13;;
11037;SDS011;5572;49.540;11.932;2023-08-06T09:16:33;16.43;;;15.23;;
11037;SDS011;5572;49.540;11.932;2023-08-06T09:19:06;16.73;;;15.43;;
11037;SDS011;5572;49.540;11.932;2023-08-06T09:21:35;16.40;;;15.20;;
11037;SDS011;5572;49.540;11.932;2023-08-06T09:24:06;16.23;;;15.07;;
11037;SDS011;5572;49.540;11.932;2023-08-06T09:26:33;18.63;;;17.27;;
11037;SDS011;5572;49.540;11.932;2023-08-06T09:29:00;19.47;;;17.90;;
11037;SDS011;5572;49.540;11.932;2023-08-06T09:31:33;18.23;;;16.83;;
11037;SDS011;5572;49.540;11.932;2023-08-06T09:34:06;17.37;;;16.17;;
11037;SDS011;5572;49.540;11.932;2023-08-06T09:36:39;17.27;;;16.10;;
11037;SDS011;5572;49.540;11.932;2023-08-06T09:39:12;17.47;;;16.27;;
11037;SDS011;5572;49.540;11.932;2023-08-06T09:41:39;17.97;;;16.67;;
11037;SDS011;5572;49.540;11.932;2023-08-06T09:44:06;19.27;;;17.90;;
11037;SDS011;5572;49.540;11.932;2023-08-06T09:46:43;17.53;;;16.30;;
11037;SDS011;5572;49.540;11.932;2023-08-06T09:49:13;18.93;;;17.43;;
11037;SDS011;5572;49.540;11.932;2023-08-06T09:51:40;18.17;;;16.87;;
11037;SDS011;5572;49.540;11.932;2023-08-06T09:54:07;20.07;;;18.47;;
11037;SDS011;5572;49.540;11.932;2023-08-06T09:56:37;18.50;;;17.20;;
11037;SDS011;5572;49.540;11.932;2023-08-06T09:59:04;18.27;;;16.87;;
11037;SDS011;5572;49.540;11.932;2023-08-06T10:01:31;19.80;;;18.40;;
11037;SDS011;5572;49.540;11.932;2023-08-06T10:03:59;18.87;;;17.47;;
11037;SDS011;5572;49.540;11.932;2023-08-06T10:06:26;16.00;;;14.60;;
11037;SDS011;5572;49.540;11.932;2023-08-06T10:08:55;16.10;;;14.97;;
11037;SDS011;5572;49.540;11.932;2023-08-06T10:11:22;17.10;;;15.77;;
11037;SDS011;5572;49.540;11.932;2023-08-06T10:13:51;16.23;;;15.07;;
11037;SDS011;5572;49.540;11.932;2023-08-06T10:16:21;18.47;;;17.00;;
11037;SDS011;5572;49.540;11.932;2023-08-06T10:18:48;16.47;;;15.30;;
11037;SDS011;5572;49.540;11.932;2023-08-06T10:21:17;16.93;;;15.70;;
11037;SDS011;5572;49.540;11.932;2023-08-06T10:23:43;16.77;;;15.53;;
11037;SDS011;5572;49.540;11.932;2023-08-06T10:26:10;17.13;;;15.70;;
11037;SDS011;5572;49.540;11.932;2023-08-06T10:28:37;15.67;;;14.60;;
11037;SDS011;5572;49.540;11.932;2023-08-06T10:31:04;18.60;;;17.27;;
11037;SDS011;5572;49.540;11.932;2023-08-06T10:33:40;17.07;;;15.63;;
11037;SDS011;5572;49.540;11.932;2023-08-06T10:36:10;15.13;;;14.10;;
11037;SDS011;5572;49.540;11.932;2023-08-06T10:38:45;16.73;;;15.50;;
11037;SDS011;5572;49.540;11.932;2023-08-06T10:41:16;15.60;;;14.47;;
11037;SDS011;5572;49.540;11.932;2023-08-06T10:43:45;17.07;;;15.87;;
11037;SDS011;5572;49.540;11.932;2023-08-06T10:46:21;16.40;;;15.20;;
11037;SDS011;5572;49.540;11.932;2023-08-06T10:48:49;16.87;;;15.57;;
11037;SDS011;5572;49.540;11.932;2023-08-06T10:51:15;18.07;;;16.73;;
11037;SDS011;5572;49.540;11.932;2023-08-06T10:53:42;18.10;;;16.83;;
11037;SDS011;5572;49.540;11.932;2023-08-06T10:56:13;17.43;;;16.13;;
11037;SDS011;5572;49.540;11.932;2023-08-06T10:58:40;17.70;;;15.97;;
11037;SDS011;5572;49.540;11.932;2023-08-06T11:01:06;17.67;;;16.37;;
11037;SDS011;5572;49.540;11.932;2023-08-06T11:03:33;16.93;;;15.70;;
11037;SDS011;5572;49.540;11.932;2023-08-06T11:06:00;16.63;;;15.47;;
11037;SDS011;5572;49.540;11.932;2023-08-06T11:08:28;17.90;;;16.67;;
11037;SDS011;5572;49.540;11.932;2023-08-06T11:11:08;16.13;;;15.00;;
11037;SDS011;5572;49.540;11.932;2023-08-06T11:13:37;17.17;;;16.00;;
11037;SDS011;5572;49.540;11.932;2023-08-06T11:16:04;15.00;;;13.97;;
11037;SDS011;5572;49.540;11.932;2023-08-06T11:18:31;15.60;;;14.53;;
11037;SDS011;5572;49.540;11.932;2023-08-06T11:20:58;15.20;;;14.10;;
11037;SDS011;5572;49.540;11.932;2023-08-06T11:23:25;15.90;;;14.67;;
11037;SDS011;5572;49.540;11.932;2023-08-06T11:25:53;17.33;;;16.13;;
11037;SDS011;5572;49.540;11.932;2023-08-06T11:28:21;18.17;;;16.83;;
11037;SDS011;5572;49.540;11.932;2023-08-06T11:30:47;17.70;;;16.30;;
11037;SDS011;5572;49.540;11.932;2023-08-06T11:33:14;17.07;;;15.77;;
11037;SDS011;5572;49.540;11.932;2023-08-06T11:35:40;17.37;;;16.07;;
11037;SDS011;5572;49.540;11.932;2023-08-06T11:38:07;17.63;;;16.30;;
11037;SDS011;5572;49.540;11.932;2023-08-06T11:40:35;17.93;;;16.63;;
11037;SDS011;5572;49.540;11.932;2023-08-06T11:43:02;17.03;;;15.73;;
11037;SDS011;5572;49.540;11.932;2023-08-06T11:45:30;17.83;;;16.53;;
11037;SDS011;5572;49.540;11.932;2023-08-06T11:47:56;17.73;;;16.43;;
11037;SDS011;5572;49.540;11.932;2023-08-06T11:50:24;15.87;;;14.70;;
11037;SDS011;5572;49.540;11.932;2023-08-06T11:52:55;17.13;;;15.87;;
11037;SDS011;5572;49.540;11.932;2023-08-06T11:55:23;16.30;;;15.00;;
11037;SDS011;5572;49.540;11.932;2023-08-06T11:57:50;14.40;;;13.40;;
11037;SDS011;5572;49.540;11.932;2023-08-06T12:00:17;14.63;;;13.63;;
11037;SDS011;5572;49.540;11.932;2023-08-06T12:02:48;17.40;;;16.10;;
11037;SDS011;5572;49.540;11.932;2023-08-06T12:05:17;17.07;;;15.83;;
11037;SDS011;5572;49.540;11.932;2023-08-06T12:07:46;17.77;;;16.40;;
11037;SDS011;5572;49.540;11.932;2023-08-06T12:10:14;19.20;;;17.70;;
11037;SDS011;5572;49.540;11.932;2023-08-06T12:12:41;18.83;;;17.53;;
11037;SDS011;5572;49.540;11.932;2023-08-06T12:15:08;22.37;;;20.67;;
11037;SDS011;5572;49.540;11.932;2023-08-06T12:17:36;19.00;;;17.50;;
11037;SDS011;5572;49.540;11.932;2023-08-06T12:20:05;18.53;;;17.17;;
11037;SDS011;5572;49.540;11.932;2023-08-06T12:22:33;18.80;;;17.30;;
11037;SDS011;5572;49.540;11.932;2023-08-06T12:25:00;21.43;;;19.80;;
11037;SDS011;5572;49.540;11.932;2023-08-06T12:27:28;18.17;;;16.87;;
11037;SDS011;5572;49.540;11.932;2023-08-06T12:29:54;18.90;;;17.60;;
11037;SDS011;5572;49.540;11.932;2023-08-06T12:32:21;19.37;;;17.77;;
11037;SDS011;5572;49.540;11.932;2023-08-06T12:34:48;20.07;;;18.60;;
11037;SDS011;5572;49.540;11.932;2023-08-06T12:37:16;18.23;;;16.87;;
11037;SDS011;5572;49.540;11.932;2023-08-06T12:39:42;18.77;;;17.43;;
11037;SDS011;5572;49.540;11.932;2023-08-06T12:42:09;18.60;;;17.30;;
11037;SDS011;5572;49.540;11.932;2023-08-06T12:44:36;18.07;;;16.80;;
11037;SDS011;5572;49.540;11.932;2023-08-06T12:47:02;18.50;;;17.20;;
11037;SDS011;5572;49.540;11.932;2023-08-06T12:49:29;19.20;;;17.80;;
11037;SDS011;5572;49.540;11.932;2023-08-06T12:51:58;18.40;;;17.07;;
11037;SDS011;5572;49.540;11.932;2023-08-06T12:54:26;16.83;;;15.63;;
11037;SDS011;5572;49.540;11.932;2023-08-06T12:56:54;17.27;;;16.03;;
11037;SDS011;5572;49.540;11.932;2023-08-06T12:59:20;16.57;;;15.40;;
11037;SDS011;5572;49.540;11.932;2023-08-06T13:01:47;18.27;;;16.97;;
11037;SDS011;5572;49.540;11.932;2023-08-06T13:04:14;17.00;;;15.83;;
11037;SDS011;5572;49.540;11.932;2023-08-06T13:06:41;18.67;;;17.27;;
11037;SDS011;5572;49.540;11.932;2023-08-06T13:09:07;17.30;;;15.90;;
11037;SDS011;5572;49.540;11.932;2023-08-06T13:11:36;19.70;;;18.27;;
11037;SDS011;5572;49.540;11.932;2023-08-06T13:14:06;18.00;;;16.77;;
11037;SDS011;5572;49.540;11.932;2023-08-06T13:16:34;19.40;;;18.00;;
11037;SDS011;5572;49.540;11.932;2023-08-06T13:19:02;16.87;;;15.70;;
11037;SDS011;5572;49.540;11.932;2023-08-06T13:21:31;17.67;;;16.33;;
11037;SDS011;5572;49.540;11.932;2023-08-06T13:24:00;18.30;;;16.97;;
11037;SDS011;5572;49.540;11.932;2023-08-06T13:26:27;17.83;;;16.57;;
11037;SDS011;5572;49.540;11.932;2023-08-06T13:28:56;17.90;;;16.57;;
11037;SDS011;5572;49.540;11.932;2023-08-06T13:31:23;18.10;;;16.73;;
11037;SDS011;5572;49.540;11.932;2023-08-06T13:33:49;17.30;;;16.00;;
11037;SDS011;5572;49.540;11.932;2023-08-06T13:36:16;16.50;;;15.27;;
11037;SDS011;5572;49.540;11.932;2023-08-06T13:38:43;15.93;;;14.80;;
11037;SDS011;5572;49.540;11.932;2023-08-06T13:41:10;16.87;;;15.67;;
11037;SDS011;5572;49.540;11.932;2023-08-06T13:43:36;17.83;;;16.60;;
11037;SDS011;5572;49.540;11.932;2023-08-06T13:46:04;15.87;;;14.77;;
11037;SDS011;5572;49.540;11.932;2023-08-06T13:48:31;16.40;;;15.27;;
11037;SDS011;5572;49.540;11.932;2023-08-06T13:50:57;17.47;;;16.20;;
11037;SDS011;5572;49.540;11.932;2023-08-06T13:53:24;17.30;;;16.10;;
11037;SDS011;5572;49.540;11.932;2023-08-06T13:55:55;16.53;;;15.40;;
11037;SDS011;5572;49.540;11.932;2023-08-06T13:58:21;17.40;;;16.20;;
11037;SDS011;5572;49.540;11.932;2023-08-06T14:00:48;17.10;;;15.87;;
11037;SDS011;5572;49.540;11.932;2023-08-06T14:03:19;16.93;;;15.73;;
11037;SDS011;5572;49.540;11.932;2023-08-06T14:05:46;17.53;;;16.27;;
11037;SDS011;5572;49.540;11.932;2023-08-06T14:08:13;16.63;;;15.50;;
11037;SDS011;5572;49.540;11.932;2023-08-06T14:10:39;17.90;;;16.67;;
11037;SDS011;5572;49.540;11.932;2023-08-06T14:13:06;17.53;;;16.30;;
11037;SDS011;5572;49.540;11.932;2023-08-06T14:15:33;17.67;;;16.47;;
11037;SDS011;5572;49.540;11.932;2023-08-06T14:17:59;18.57;;;17.30;;
11037;SDS011;5572;49.540;11.932;2023-08-06T14:20:28;17.77;;;16.53;;
11037;SDS011;5572;49.540;11.932;2023-08-06T14:22:54;17.43;;;16.20;;